createdAt,value
2023-03-11T00:01:23.144Z,97.24
2023-03-11T00:03:52.753Z,97.26
2023-03-11T00:06:22.332Z,97.41
2023-03-11T00:08:52.375Z,97.27
2023-03-11T00:11:22.516Z,97.52
2023-03-11T00:13:54.642Z,97.49
2023-03-11T00:16:24.196Z,97.44
2023-03-11T00:18:54.024Z,97.41
2023-03-11T00:21:23.598Z,97.41
2023-03-11T00:23:53.176Z,97.21
2023-03-11T00:26:22.928Z,97.43
2023-03-11T00:28:55.865Z,97.56
2023-03-11T00:31:26.550Z,97.28
2023-03-11T00:33:57.340Z,97.25
2023-03-11T00:36:28.862Z,97.29
2023-03-11T00:38:58.428Z,97.11
2023-03-11T00:41:28.173Z,97.19
2023-03-11T00:44:00.331Z,96.99
2023-03-11T00:46:31.484Z,96.96
2023-03-11T00:49:01.100Z,96.95
2023-03-11T00:51:33.779Z,97.04
2023-03-11T00:54:03.758Z,97.04
2023-03-11T00:56:33.750Z,96.94
2023-03-11T00:59:05.892Z,96.73
2023-03-11T01:01:35.682Z,96.73
2023-03-11T01:04:05.272Z,96.68
2023-03-11T01:06:44.703Z,96.68
2023-03-11T01:09:14.909Z,96.50
2023-03-11T01:11:46.183Z,96.54
2023-03-11T01:14:18.327Z,96.59
2023-03-11T01:16:47.929Z,96.37
2023-03-11T01:19:18.919Z,96.49
2023-03-11T01:21:50.024Z,96.16
2023-03-11T01:24:19.769Z,96.41
2023-03-11T01:26:49.334Z,96.05
2023-03-11T01:29:22.564Z,96.07
2023-03-11T01:31:52.088Z,96.31
2023-03-11T01:34:22.084Z,96.07
2023-03-11T01:36:51.667Z,95.99
2023-03-11T01:39:22.570Z,95.94
2023-03-11T01:41:53.142Z,96.09
2023-03-11T01:44:25.583Z,95.78
2023-03-11T01:47:25.580Z,95.78
2023-03-11T01:49:55.311Z,95.97
2023-03-11T01:52:25.000Z,95.88
2023-03-11T01:54:55.284Z,95.72
2023-03-11T01:57:25.203Z,95.92
2023-03-11T02:00:00.177Z,95.70
2023-03-11T02:02:33.859Z,95.46
2023-03-11T02:05:05.728Z,95.54
2023-03-11T02:07:35.390Z,95.52
2023-03-11T02:10:07.281Z,95.78
2023-03-11T02:12:38.508Z,95.54
2023-03-11T02:15:12.432Z,95.75
2023-03-11T02:17:43.160Z,95.54
2023-03-11T02:20:19.398Z,95.76
2023-03-11T02:22:49.318Z,95.75
2023-03-11T02:25:25.329Z,95.49
2023-03-11T02:27:58.623Z,95.32
2023-03-11T02:30:30.190Z,95.55
2023-03-11T02:33:00.326Z,95.48
2023-03-11T02:35:31.608Z,95.57
2023-03-11T02:38:03.249Z,95.37
2023-03-11T02:40:41.996Z,95.40
2023-03-11T02:43:16.960Z,95.50
2023-03-11T02:45:48.054Z,95.31
2023-03-11T02:48:18.443Z,95.60
2023-03-11T02:50:49.440Z,95.63
2023-03-11T02:53:21.164Z,95.24
2023-03-11T02:55:50.742Z,95.45
2023-03-11T02:58:22.878Z,95.47
2023-03-11T03:00:52.438Z,95.53
2023-03-11T03:03:22.026Z,95.77
2023-03-11T03:05:51.718Z,95.53
2023-03-11T03:08:21.293Z,95.74
2023-03-11T03:10:51.033Z,95.60
2023-03-11T03:13:23.334Z,95.71
2023-03-11T03:15:53.168Z,96.08
2023-03-11T03:18:22.705Z,95.84
2023-03-11T03:20:53.326Z,96.13
2023-03-11T03:23:23.341Z,96.13
2023-03-11T03:25:53.108Z,96.01
2023-03-11T03:28:25.537Z,95.91
2023-03-11T03:30:55.098Z,96.25
2023-03-11T03:33:24.886Z,95.80
2023-03-11T03:35:54.554Z,96.07
2023-03-11T03:38:27.835Z,96.17
2023-03-11T03:40:57.811Z,95.96
2023-03-11T03:43:30.199Z,96.01
2023-03-11T03:46:00.323Z,96.11
2023-03-11T03:48:33.466Z,95.75
2023-03-11T03:51:07.101Z,95.93
2023-03-11T03:53:38.322Z,95.97
2023-03-11T03:56:10.769Z,96.05
2023-03-11T03:58:43.841Z,95.88
2023-03-11T04:01:14.391Z,96.28
2023-03-11T04:03:44.735Z,96.09
2023-03-11T04:06:20.496Z,96.33
2023-03-11T04:08:55.647Z,96.39
2023-03-11T04:11:30.042Z,96.49
2023-03-11T04:14:02.588Z,96.25
2023-03-11T04:16:33.890Z,96.42
2023-03-11T04:19:12.032Z,96.22
2023-03-11T04:21:41.915Z,96.42
2023-03-11T04:24:11.796Z,96.54
2023-03-11T04:26:42.487Z,96.59
2023-03-11T04:29:18.831Z,96.47
2023-03-11T04:31:52.467Z,96.37
2023-03-11T04:34:22.387Z,96.28
2023-03-11T04:36:54.808Z,96.58
2023-03-11T04:39:29.431Z,96.64
2023-03-11T04:41:59.501Z,96.84
2023-03-11T04:44:32.918Z,96.65
2023-03-11T04:47:02.741Z,96.48
2023-03-11T04:49:32.342Z,96.36
2023-03-11T04:52:01.890Z,96.66
2023-03-11T04:54:31.811Z,96.47
2023-03-11T04:57:01.479Z,96.44
2023-03-11T04:59:33.713Z,96.26
2023-03-11T05:02:03.714Z,96.33
2023-03-11T05:04:34.153Z,96.22
2023-03-11T05:07:04.323Z,96.52
2023-03-11T05:09:34.298Z,96.65
2023-03-11T05:12:04.318Z,96.75
2023-03-11T05:14:37.598Z,96.91
2023-03-11T05:17:07.628Z,96.84
2023-03-11T05:19:37.361Z,96.75
2023-03-11T05:22:13.160Z,96.66
2023-03-11T05:24:42.730Z,96.67
2023-03-11T05:27:12.343Z,96.28
2023-03-11T05:29:45.033Z,96.40
2023-03-11T05:32:16.205Z,96.42
2023-03-11T05:34:48.538Z,96.58
2023-03-11T05:37:19.262Z,96.65
2023-03-11T05:39:50.918Z,96.70
2023-03-11T05:42:21.534Z,96.97
2023-03-11T05:44:56.443Z,97.19
2023-03-11T05:47:27.700Z,97.25
2023-03-11T05:49:58.713Z,97.00
2023-03-11T05:52:30.596Z,97.20
2023-03-11T05:55:00.309Z,97.07
2023-03-11T05:57:32.564Z,97.05
2023-03-11T06:00:05.683Z,96.93
2023-03-11T06:02:43.984Z,96.90
2023-03-11T06:05:17.755Z,96.91
2023-03-11T06:07:49.915Z,96.89
2023-03-11T06:10:21.162Z,96.50
2023-03-11T06:12:50.767Z,96.73
2023-03-11T06:15:28.406Z,96.72
2023-03-11T06:17:58.251Z,96.57
2023-03-11T06:20:29.019Z,96.33
2023-03-11T06:22:58.797Z,96.42
2023-03-11T06:25:28.737Z,96.56
2023-03-11T06:27:58.841Z,96.05
2023-03-11T06:30:31.115Z,96.36
2023-03-11T06:33:09.175Z,96.13
2023-03-11T06:35:39.400Z,96.14
2023-03-11T06:38:09.050Z,96.15
2023-03-11T06:40:39.926Z,96.02
2023-03-11T06:43:09.691Z,96.12
2023-03-11T06:45:44.942Z,95.98
2023-03-11T06:48:14.790Z,95.77
2023-03-11T06:50:44.505Z,95.75
2023-03-11T06:53:14.374Z,95.97
2023-03-11T06:55:44.110Z,95.69
2023-03-11T06:58:13.924Z,95.61
2023-03-11T07:00:46.163Z,95.26
2023-03-11T07:03:15.891Z,94.72
2023-03-11T07:05:45.595Z,94.91
2023-03-11T07:08:15.506Z,94.59
2023-03-11T07:10:45.090Z,94.57
2023-03-11T07:13:15.315Z,94.18
2023-03-11T07:15:48.411Z,94.00
2023-03-11T07:18:18.194Z,93.74
2023-03-11T07:20:48.202Z,93.96
2023-03-11T07:23:18.257Z,92.81
2023-03-11T07:25:49.115Z,91.23
2023-03-11T07:28:18.965Z,90.75
2023-03-11T07:30:51.230Z,89.97
2023-03-11T07:33:21.092Z,88.59
2023-03-11T07:35:50.735Z,86.26
2023-03-11T07:38:20.953Z,84.06
2023-03-11T07:40:50.646Z,81.58
2023-03-11T07:43:21.011Z,79.13
2023-03-11T07:45:55.047Z,76.54
2023-03-11T07:48:24.610Z,75.98
2023-03-11T07:51:03.084Z,74.41
2023-03-11T07:53:32.694Z,72.58
2023-03-11T07:56:03.179Z,69.99
2023-03-11T07:58:33.318Z,68.53
2023-03-11T08:01:10.350Z,66.24
2023-03-11T08:03:40.457Z,65.18
2023-03-11T08:06:15.326Z,62.41
2023-03-11T08:08:45.192Z,61.75
2023-03-11T08:11:15.455Z,60.14
2023-03-11T08:13:45.783Z,58.66
2023-03-11T08:16:19.660Z,56.63
2023-03-11T08:18:49.576Z,57.51
2023-03-11T08:21:20.838Z,57.41
2023-03-11T08:23:50.557Z,54.94
2023-03-11T08:26:22.166Z,52.75
2023-03-11T08:28:52.203Z,51.63
2023-03-11T08:31:26.897Z,49.49
2023-03-11T08:33:58.512Z,49.16
2023-03-11T08:36:28.435Z,48.04
2023-03-11T08:38:58.098Z,46.34
2023-03-11T08:41:28.579Z,45.79
2023-03-11T08:43:58.240Z,44.90
2023-03-11T08:46:31.884Z,42.70
2023-03-11T08:49:02.089Z,42.96
2023-03-11T08:51:33.274Z,41.62
2023-03-11T08:54:03.767Z,41.24
2023-03-11T08:56:33.489Z,41.49
2023-03-11T08:59:03.166Z,41.37
2023-03-11T09:01:35.403Z,39.95
2023-03-11T09:04:05.151Z,38.98
2023-03-11T09:06:34.757Z,38.90
2023-03-11T09:09:04.349Z,38.35
2023-03-11T09:11:37.432Z,37.63
2023-03-11T09:14:07.620Z,37.17
2023-03-11T09:16:39.793Z,36.48
2023-03-11T09:19:09.802Z,36.32
2023-03-11T09:21:41.072Z,35.64
2023-03-11T09:24:11.274Z,34.90
2023-03-11T09:26:41.058Z,33.79
2023-03-11T09:29:10.666Z,32.67
2023-03-11T09:31:42.877Z,32.37
2023-03-11T09:34:16.040Z,33.26
2023-03-11T09:36:46.973Z,32.70
2023-03-11T09:39:16.646Z,34.08
2023-03-11T09:41:57.938Z,35.37
2023-03-11T09:44:33.026Z,34.00
2023-03-11T09:47:37.801Z,32.05
2023-03-11T09:50:23.877Z,33.93
2023-03-11T09:53:05.439Z,34.94
2023-03-11T09:55:38.031Z,35.34
2023-03-11T09:58:14.304Z,35.28
2023-03-11T10:00:44.597Z,35.38
2023-03-11T10:03:37.383Z,34.32
2023-03-11T10:06:17.370Z,35.04
2023-03-11T10:08:50.327Z,36.06
2023-03-11T10:11:32.653Z,36.76
2023-03-11T10:14:09.359Z,38.34
2023-03-11T10:16:46.482Z,38.71
2023-03-11T10:19:27.724Z,39.31
2023-03-11T10:22:05.572Z,39.26
2023-03-11T10:24:53.564Z,39.81
2023-03-11T10:27:27.278Z,41.51
2023-03-11T10:30:01.131Z,42.27
2023-03-11T10:32:39.562Z,42.17
2023-03-11T10:35:19.563Z,42.87
2023-03-11T10:37:53.178Z,43.52
2023-03-11T10:40:29.372Z,44.15
2023-03-11T10:43:01.156Z,44.47
2023-03-11T10:45:31.901Z,44.89
2023-03-11T10:48:01.593Z,44.93
2023-03-11T10:50:36.709Z,45.03
2023-03-11T10:53:11.720Z,45.40
2023-03-11T10:55:48.984Z,45.82
2023-03-11T10:58:19.961Z,45.90
2023-03-11T11:00:49.834Z,46.05
2023-03-11T11:03:24.414Z,46.30
2023-03-11T11:06:05.990Z,46.60
2023-03-11T11:08:35.797Z,46.58
2023-03-11T11:11:06.569Z,46.61
2023-03-11T11:13:37.234Z,47.02
2023-03-11T11:16:08.264Z,47.59
2023-03-11T11:18:40.153Z,47.79
2023-03-11T11:21:16.927Z,47.60
2023-03-11T11:23:50.914Z,47.71
2023-03-11T11:26:24.101Z,47.92
2023-03-11T11:29:09.447Z,47.53
2023-03-11T11:31:39.806Z,48.02
2023-03-11T11:34:30.749Z,47.44
2023-03-11T11:37:04.933Z,47.93
2023-03-11T11:39:35.244Z,48.50
2023-03-11T11:42:04.834Z,49.12
2023-03-11T11:44:36.781Z,48.11
2023-03-11T11:47:10.255Z,48.18
2023-03-11T11:49:40.391Z,47.84
2023-03-11T11:52:16.728Z,47.60
2023-03-11T11:54:49.877Z,47.43
2023-03-11T11:57:21.258Z,47.25
2023-03-11T11:59:50.954Z,47.52
2023-03-11T12:02:33.388Z,47.30
2023-03-11T12:05:09.841Z,47.51
2023-03-11T12:08:00.152Z,46.88
2023-03-11T12:10:32.653Z,46.82
2023-03-11T12:13:20.765Z,46.05
2023-03-11T12:15:53.251Z,46.55
2023-03-11T12:18:25.893Z,46.43
2023-03-11T12:20:57.568Z,46.42
2023-03-11T12:23:44.266Z,45.92
2023-03-11T12:26:18.579Z,46.40
2023-03-11T12:28:53.351Z,45.94
2023-03-11T12:31:24.532Z,46.07
2023-03-11T12:33:59.041Z,46.17
2023-03-11T12:36:32.590Z,45.95
2023-03-11T12:39:06.517Z,45.96
2023-03-11T12:41:39.953Z,46.21
2023-03-11T12:44:25.273Z,46.24
2023-03-11T12:47:07.044Z,46.42
2023-03-11T12:49:38.560Z,46.92
2023-03-11T12:52:19.769Z,46.59
2023-03-11T12:54:53.065Z,46.34
2023-03-11T12:57:35.762Z,46.22
2023-03-11T13:00:18.166Z,46.66
2023-03-11T13:03:17.775Z,46.64
2023-03-11T13:06:01.546Z,47.31
2023-03-11T13:08:36.345Z,47.79
2023-03-11T13:11:36.468Z,47.49
2023-03-11T13:14:14.636Z,48.20
2023-03-11T13:16:44.279Z,47.89
2023-03-11T13:19:50.191Z,47.64
2023-03-11T13:22:45.223Z,47.93
2023-03-11T13:25:34.449Z,47.92
2023-03-11T13:28:29.342Z,47.56
2023-03-11T13:31:05.564Z,47.39
2023-03-11T13:33:44.780Z,47.53
2023-03-11T13:36:23.292Z,48.01
2023-03-11T13:39:08.788Z,47.90
2023-03-11T13:41:39.794Z,48.54
2023-03-11T13:44:25.230Z,48.11
2023-03-11T13:46:56.609Z,48.44
2023-03-11T13:49:35.508Z,48.35
2023-03-11T13:52:05.995Z,48.81
2023-03-11T13:54:41.027Z,49.21
2023-03-11T13:57:22.957Z,49.34
2023-03-11T13:59:58.395Z,49.12
2023-03-11T14:02:29.907Z,49.03
2023-03-11T14:05:01.619Z,48.97
2023-03-11T14:07:34.361Z,49.28
2023-03-11T14:10:23.670Z,49.24
2023-03-11T14:12:53.712Z,49.72
2023-03-11T14:15:27.753Z,49.68
2023-03-11T14:17:57.378Z,49.96
2023-03-11T14:20:28.973Z,49.99
2023-03-11T14:22:59.342Z,49.63
2023-03-11T14:25:31.130Z,49.64
2023-03-11T14:28:02.504Z,49.23
2023-03-11T14:30:36.612Z,49.39
2023-03-11T14:33:06.581Z,49.61
2023-03-11T14:35:39.432Z,50.33
2023-03-11T14:38:23.953Z,50.00
2023-03-11T14:40:55.399Z,50.20
2023-03-11T14:43:25.165Z,49.70
2023-03-11T14:45:57.796Z,49.54
2023-03-11T14:48:30.445Z,49.81
2023-03-11T14:51:01.634Z,49.90
2023-03-11T14:53:34.043Z,49.60
2023-03-11T14:56:05.601Z,49.38
2023-03-11T14:58:37.118Z,49.43
2023-03-11T15:01:13.279Z,49.10
2023-03-11T15:03:47.410Z,49.42
2023-03-11T15:06:18.825Z,49.32
2023-03-11T15:08:50.874Z,48.94
2023-03-11T15:11:25.783Z,48.84
2023-03-11T15:13:56.091Z,49.09
2023-03-11T15:16:33.524Z,48.67
2023-03-11T15:19:04.195Z,49.18
2023-03-11T15:21:33.886Z,48.77
2023-03-11T15:24:07.006Z,48.87
2023-03-11T15:26:38.289Z,49.21
2023-03-11T15:29:16.514Z,48.68
2023-03-11T15:31:49.237Z,48.83
2023-03-11T15:34:27.602Z,48.85
2023-03-11T15:37:18.800Z,48.71
2023-03-11T15:39:51.281Z,48.63
2023-03-11T15:42:26.076Z,48.42
2023-03-11T15:45:08.462Z,48.58
2023-03-11T15:47:41.151Z,48.93
2023-03-11T15:50:27.232Z,48.96
2023-03-11T15:52:59.934Z,49.40
2023-03-11T15:55:30.498Z,49.24
2023-03-11T15:58:05.312Z,49.23
2023-03-11T16:00:35.410Z,49.52
2023-03-11T16:03:08.031Z,49.34
2023-03-11T16:05:37.845Z,49.38
2023-03-11T16:08:07.805Z,49.19
2023-03-11T16:10:37.629Z,48.91
2023-03-11T16:13:07.735Z,48.40
2023-03-11T16:15:39.154Z,48.47
2023-03-11T16:18:12.181Z,48.48
2023-03-11T16:20:45.237Z,48.46
2023-03-11T16:23:19.357Z,48.61
2023-03-11T16:25:48.731Z,48.72
2023-03-11T16:28:19.404Z,49.09
2023-03-11T16:30:49.418Z,48.85
2023-03-11T16:33:21.722Z,48.88
2023-03-11T16:35:51.597Z,49.34
2023-03-11T16:38:23.179Z,49.70
2023-03-11T16:40:59.495Z,50.04
2023-03-11T16:43:29.783Z,50.45
2023-03-11T16:45:59.433Z,50.52
2023-03-11T16:48:31.629Z,50.58
2023-03-11T16:51:01.254Z,50.88
2023-03-11T16:53:30.981Z,50.87
2023-03-11T16:56:00.614Z,50.71
2023-03-11T16:58:30.857Z,51.09
2023-03-11T17:01:00.631Z,51.23
2023-03-11T17:03:41.927Z,51.32
2023-03-11T17:06:12.589Z,51.53
2023-03-11T17:08:42.246Z,51.43
2023-03-11T17:11:17.473Z,51.69
2023-03-11T17:13:47.239Z,52.07
2023-03-11T17:16:17.349Z,52.34
2023-03-11T17:18:49.776Z,52.29
2023-03-11T17:21:20.035Z,52.81
2023-03-11T17:23:50.083Z,53.00
2023-03-11T17:26:20.534Z,53.30
2023-03-11T17:28:50.157Z,53.54
2023-03-11T17:31:20.417Z,53.85
2023-03-11T17:33:52.618Z,54.04
2023-03-11T17:36:22.533Z,54.16
2023-03-11T17:38:54.932Z,54.10
2023-03-11T17:41:25.431Z,54.30
2023-03-11T17:43:55.152Z,54.67
2023-03-11T17:46:25.270Z,55.19
2023-03-11T17:48:57.545Z,55.49
2023-03-11T17:51:28.403Z,56.10
2023-03-11T17:53:59.569Z,56.10
2023-03-11T17:56:29.437Z,56.23
2023-03-11T17:58:59.551Z,56.85
2023-03-11T18:01:30.469Z,56.93
2023-03-11T18:04:02.944Z,57.41
2023-03-11T18:06:32.985Z,57.29
2023-03-11T18:09:02.843Z,57.51
2023-03-11T18:11:32.487Z,57.89
2023-03-11T18:14:02.121Z,58.00
2023-03-11T18:16:33.772Z,58.30
2023-03-11T18:19:05.998Z,58.49
2023-03-11T18:21:35.598Z,58.98
2023-03-11T18:24:05.270Z,59.28
2023-03-11T18:26:34.905Z,59.41
2023-03-11T18:29:04.626Z,59.62
2023-03-11T18:31:34.661Z,59.97
2023-03-11T18:34:12.309Z,60.28
2023-03-11T18:36:42.813Z,60.58
2023-03-11T18:39:14.038Z,60.52
2023-03-11T18:41:43.978Z,60.96
2023-03-11T18:44:13.712Z,61.00
2023-03-11T18:46:44.118Z,61.35
2023-03-11T18:49:17.586Z,61.75
2023-03-11T18:51:47.194Z,61.62
2023-03-11T18:54:16.803Z,62.10
2023-03-11T18:56:46.428Z,62.67
2023-03-11T18:59:16.036Z,63.20
2023-03-11T19:01:45.680Z,63.56
2023-03-11T19:04:17.908Z,63.95
2023-03-11T19:06:48.157Z,64.39
2023-03-11T19:09:18.411Z,64.98
2023-03-11T19:11:48.136Z,65.17
2023-03-11T19:14:17.737Z,65.77
2023-03-11T19:16:47.416Z,66.08
2023-03-11T19:19:19.668Z,66.33
2023-03-11T19:21:49.675Z,66.62
2023-03-11T19:24:19.266Z,66.97
2023-03-11T19:26:48.898Z,67.21
2023-03-11T19:29:19.734Z,67.24
2023-03-11T19:31:49.349Z,67.38
2023-03-11T19:34:22.372Z,67.89
2023-03-11T19:36:52.025Z,67.93
2023-03-11T19:39:21.619Z,68.29
2023-03-11T19:41:51.229Z,68.73
2023-03-11T19:44:20.843Z,69.16
2023-03-11T19:46:50.888Z,69.28
2023-03-11T19:49:23.594Z,69.95
2023-03-11T19:51:54.789Z,69.94
2023-03-11T19:54:24.826Z,70.26
2023-03-11T19:56:54.457Z,70.56
2023-03-11T19:59:24.158Z,70.76
2023-03-11T20:01:53.816Z,70.93
2023-03-11T20:04:26.051Z,71.03
2023-03-11T20:06:55.794Z,71.08
2023-03-11T20:09:25.426Z,71.45
2023-03-11T20:11:55.146Z,71.22
2023-03-11T20:14:24.747Z,71.53
2023-03-11T20:16:54.385Z,71.71
2023-03-11T20:19:27.052Z,71.91
2023-03-11T20:21:56.768Z,72.24
2023-03-11T20:24:26.414Z,72.09
2023-03-11T20:26:56.439Z,72.05
2023-03-11T20:29:26.186Z,72.11
2023-03-11T20:31:55.945Z,71.91
2023-03-11T20:34:29.379Z,72.46
2023-03-11T20:36:59.079Z,72.54
2023-03-11T20:39:28.916Z,72.55
2023-03-11T20:41:58.660Z,72.80
2023-03-11T20:44:28.705Z,72.88
2023-03-11T20:46:58.461Z,73.09
2023-03-11T20:49:30.728Z,73.20
2023-03-11T20:52:01.298Z,73.17
2023-03-11T20:54:30.961Z,73.17
2023-03-11T20:57:00.608Z,73.25
2023-03-11T20:59:30.368Z,73.27
2023-03-11T21:02:00.138Z,73.37
2023-03-11T21:04:32.566Z,73.11
2023-03-11T21:07:02.651Z,73.47
2023-03-11T21:09:32.466Z,73.19
2023-03-11T21:12:02.172Z,73.12
2023-03-11T21:14:31.947Z,73.07
2023-03-11T21:17:01.651Z,72.86
2023-03-11T21:19:33.948Z,73.19
2023-03-11T21:22:04.391Z,72.93
2023-03-11T21:24:34.010Z,73.27
2023-03-11T21:27:03.949Z,73.10
2023-03-11T21:29:33.592Z,73.06
2023-03-11T21:32:03.642Z,73.37
2023-03-11T21:34:36.345Z,73.45
2023-03-11T21:37:05.975Z,73.11
2023-03-11T21:39:35.587Z,73.41
2023-03-11T21:42:05.330Z,73.34
2023-03-11T21:44:35.010Z,73.29
2023-03-11T21:47:04.733Z,73.16
2023-03-11T21:49:37.396Z,73.38
2023-03-11T21:52:07.530Z,73.35
2023-03-11T21:54:37.224Z,73.23
2023-03-11T21:57:07.174Z,73.34
2023-03-11T21:59:37.202Z,73.38
2023-03-11T22:02:06.906Z,73.14
2023-03-11T22:04:39.182Z,73.20
2023-03-11T22:07:09.082Z,73.15
2023-03-11T22:09:38.871Z,73.05
2023-03-11T22:12:09.234Z,72.84
2023-03-11T22:14:38.888Z,72.93
2023-03-11T22:17:08.808Z,72.81
2023-03-11T22:19:41.127Z,72.83
2023-03-11T22:22:10.792Z,72.46
2023-03-11T22:24:40.636Z,72.36
2023-03-11T22:27:10.270Z,72.10
2023-03-11T22:29:40.432Z,72.15
2023-03-11T22:32:10.045Z,71.71
2023-03-11T22:34:42.240Z,71.58
2023-03-11T22:37:12.424Z,71.22
2023-03-11T22:39:42.033Z,71.27
2023-03-11T22:42:12.324Z,71.07
2023-03-11T22:44:41.965Z,70.83
2023-03-11T22:47:11.627Z,70.53
2023-03-11T22:49:43.838Z,70.51
2023-03-11T22:52:13.441Z,70.13
2023-03-11T22:54:43.073Z,69.91
2023-03-11T22:57:12.824Z,69.87
2023-03-11T22:59:42.479Z,69.51
2023-03-11T23:02:12.099Z,69.67
2023-03-11T23:04:46.826Z,69.34
2023-03-11T23:07:16.426Z,69.22
2023-03-11T23:09:46.089Z,69.04
2023-03-11T23:12:15.674Z,68.66
2023-03-11T23:14:47.198Z,68.25
2023-03-11T23:17:17.227Z,68.43
2023-03-11T23:19:49.410Z,67.94
2023-03-11T23:22:18.995Z,67.66
2023-03-11T23:24:48.658Z,67.48
2023-03-11T23:27:18.272Z,67.42
2023-03-11T23:29:47.964Z,67.16
2023-03-11T23:32:17.599Z,67.22
2023-03-11T23:34:49.916Z,66.86
2023-03-11T23:37:19.579Z,66.57
2023-03-11T23:39:49.208Z,66.39
2023-03-11T23:42:25.816Z,66.33
2023-03-11T23:44:55.996Z,66.25
2023-03-11T23:47:25.599Z,66.29
2023-03-11T23:49:58.244Z,66.33
2023-03-11T23:52:28.339Z,66.56
2023-03-11T23:54:58.468Z,66.62
2023-03-11T23:57:28.169Z,66.46
2023-03-11T23:59:57.801Z,66.49
